Time;durP1;ratioP1;P1;durP2;ratioP2;P2;SDS_P1;SDS_P2;PMS_P1;PMS_P2;Temp;Humidity;BMP_temperature;BMP_pressure;BME280_temperature;BME280_humidity;BME280_pressure;Samples;Min_cycle;Max_cycle;Signal;HPM_P1;HPM_P2
2021/05/27 00:00:52;;;;;;;6.3;2.6;;;;;;;8.71;90.83301;98360.38;;;;
2021/05/27 00:10:51;;;;;;;7.1;3.5;;;;;;;9.18;81.2168;98352.92;;;;
2021/05/27 00:20:49;;;;;;;6.1;3.3;;;;;;;9.64;79.63965;98369.59;;;;
2021/05/27 00:30:48;;;;;;;3.4;1.8;;;;;;;9.83;76.58789;98372.06;;;;
2021/05/27 00:40:46;;;;;;;2.6;1.5;;;;;;;9.82;76.16992;98373.95;;;;
2021/05/27 00:50:45;;;;;;;3;1.4;;;;;;;10.4;72.86328;98371.14;;;;
2021/05/27 01:00:44;;;;;;;5.1;1.7;;;;;;;10.98;69.65625;98373.52;;;;
2021/05/27 01:10:42;;;;;;;5.6;2.3;;;;;;;11.27;70.05176;98361.33;;;;
2021/05/27 01:20:41;;;;;;;5.7;1.7;;;;;;;11.47;69.12305;98360.69;;;;
2021/05/27 01:30:40;;;;;;;6.1;1.6;;;;;;;11.66;68.04102;98366.55;;;;
2021/05/27 01:40:39;;;;;;;2.6;1.4;;;;;;;11.77;68.06934;98370.52;;;;
2021/05/27 01:50:37;;;;;;;4.4;1.8;;;;;;;11.71;68.16211;98377.2;;;;
2021/05/27 02:00:36;;;;;;;5.6;1.8;;;;;;;11.59;71.66797;98390.54;;;;
2021/05/27 02:20:34;;;;;;;3.7;1.7;;;;;;;11.72;70.23828;98394.2;;;;
2021/05/27 02:30:33;;;;;;;2.6;1.4;;;;;;;11.48;75.42871;98416.25;;;;
2021/05/27 02:40:31;;;;;;;5.5;3.1;;;;;;;11.15;75.32715;98412.39;;;;
2021/05/27 02:50:30;;;;;;;6.5;3.7;;;;;;;10.9;78.9209;98398.55;;;;
2021/05/27 03:00:29;;;;;;;6.3;2.3;;;;;;;10.94;79.09668;98417.59;;;;
2021/05/27 03:10:28;;;;;;;3.9;2.5;;;;;;;10.96;80.95215;98418.88;;;;
2021/05/27 03:20:26;;;;;;;6.6;2.6;;;;;;;11.05;84.00195;98430.47;;;;
2021/05/27 03:30:28;;;;;;;4.7;2.2;;;;;;;11.3;81.5;98437.03;;;;
2021/05/27 03:40:24;;;;;;;6.1;2.2;;;;;;;11.41;82.08398;98442.91;;;;
2021/05/27 03:50:23;;;;;;;4.9;2.1;;;;;;;11.5;84.83203;98446.41;;;;
2021/05/27 04:10:20;;;;;;;6.9;3.1;;;;;;;12.02;83.88184;98452.61;;;;
2021/05/27 04:20:19;;;;;;;4.6;2;;;;;;;12.19;80.375;98452.59;;;;
2021/05/27 04:30:18;;;;;;;3.2;1.4;;;;;;;12.63;77.82715;98455.98;;;;
2021/05/27 04:40:17;;;;;;;2.5;1.2;;;;;;;12.97;78.48828;98445.02;;;;
2021/05/27 04:50:16;;;;;;;3.4;1.9;;;;;;;13.06;77.32422;98437.63;;;;
2021/05/27 05:00:15;;;;;;;6.6;1.7;;;;;;;13.16;79.4873;98439.98;;;;
2021/05/27 05:10:14;;;;;;;8.7;3;;;;;;;13.31;76.55078;98444.05;;;;
2021/05/27 05:20:13;;;;;;;2.2;1.1;;;;;;;13.65;74.71289;98446.5;;;;
2021/05/27 05:30:12;;;;;;;2.5;1.1;;;;;;;14.13;70.14648;98466.83;;;;
2021/05/27 05:40:11;;;;;;;3.3;1.4;;;;;;;14.86;69.71484;98473.22;;;;
2021/05/27 05:50:10;;;;;;;4;1.9;;;;;;;15.19;66.97559;98470.41;;;;
2021/05/27 06:00:09;;;;;;;6.2;1.8;;;;;;;15.56;63.5752;98472.78;;;;
2021/05/27 06:10:08;;;;;;;5.2;2.8;;;;;;;15.65;67.38965;98469.94;;;;
2021/05/27 06:20:08;;;;;;;7.7;3.7;;;;;;;15.69;64.09668;98472.77;;;;
2021/05/27 06:30:07;;;;;;;4.4;1.4;;;;;;;15.55;64.21582;98468.47;;;;
2021/05/27 06:40:06;;;;;;;7.3;1.5;;;;;;;15.74;65.62891;98483.38;;;;
2021/05/27 06:50:06;;;;;;;3.6;1.2;;;;;;;15.79;63.30957;98494.79;;;;
2021/05/27 07:00:05;;;;;;;2.7;1.4;;;;;;;15.71;63.64258;98498.45;;;;
2021/05/27 07:10:04;;;;;;;3;0.8;;;;;;;15.94;65.2793;98487.84;;;;
2021/05/27 07:20:04;;;;;;;2.7;0.8;;;;;;;16.28;61.08398;98487.26;;;;
2021/05/27 07:30:03;;;;;;;2.8;0.9;;;;;;;15.98;60.28418;98496.9;;;;
2021/05/27 07:40:02;;;;;;;3.6;1.4;;;;;;;16.24;61.7793;98497.27;;;;
2021/05/27 07:50:01;;;;;;;3.1;1;;;;;;;16.52;61.1748;98492.58;;;;
2021/05/27 08:00:01;;;;;;;1.6;0.8;;;;;;;16.62;58.93457;98504.94;;;;
2021/05/27 08:10:00;;;;;;;7;1.1;;;;;;;16.83;59.43359;98516.38;;;;
2021/05/27 08:20:00;;;;;;;4.6;0.8;;;;;;;17.03;59.87598;98514.53;;;;
2021/05/27 08:30:00;;;;;;;1.9;0.8;;;;;;;17.11;58.33301;98506.17;;;;
2021/05/27 08:39:58;;;;;;;3.8;1;;;;;;;17.35;55.75879;98507.94;;;;
2021/05/27 08:49:58;;;;;;;2.1;1;;;;;;;17.67;57.67871;98508.67;;;;
2021/05/27 08:59:57;;;;;;;3.9;1.8;;;;;;;17.46;55.49512;98517.13;;;;
2021/05/27 09:19:57;;;;;;;3;1.5;;;;;;;17.83;50.41113;98509.44;;;;
2021/05/27 09:29:56;;;;;;;1.8;0.9;;;;;;;18.17;52.74023;98520.65;;;;
2021/05/27 09:39:57;;;;;;;9.1;1.5;;;;;;;18.38;51.70117;98516.41;;;;
2021/05/27 09:49:59;;;;;;;3.7;1.3;;;;;;;18.62;53.78906;98530.92;;;;
2021/05/27 09:59:55;;;;;;;2.8;0.9;;;;;;;18.88;52.96484;98526.33;;;;
2021/05/27 10:09:55;;;;;;;2.2;0.7;;;;;;;19.53;50.70996;98538;;;;
2021/05/27 10:19:55;;;;;;;3.6;1.8;;;;;;;19.77;51.02734;98539.52;;;;
2021/05/27 10:29:55;;;;;;;1.6;0.9;;;;;;;19.63;50.74316;98535.78;;;;
2021/05/27 10:39:55;;;;;;;3.1;1.1;;;;;;;19.65;51.58105;98538.92;;;;
2021/05/27 10:49:55;;;;;;;2.2;0.9;;;;;;;19.97;50.54004;98519.09;;;;
2021/05/27 10:59:54;;;;;;;2.7;1.1;;;;;;;19.84;49.52539;98527.89;;;;
2021/05/27 11:09:54;;;;;;;10.8;1.5;;;;;;;20.21;49.10059;98527.98;;;;
2021/05/27 11:19:55;;;;;;;3;1.4;;;;;;;20.85;47.83203;98527.58;;;;
2021/05/27 11:29:54;;;;;;;3.5;1.1;;;;;;;20.19;46.66699;98525.63;;;;
2021/05/27 11:39:54;;;;;;;2.4;0.8;;;;;;;20.62;47.2832;98526.16;;;;
2021/05/27 11:49:54;;;;;;;2.3;0.9;;;;;;;20.18;47.5625;98536.94;;;;
2021/05/27 11:59:54;;;;;;;5.6;1.2;;;;;;;20.22;47.13574;98529.56;;;;
2021/05/27 12:09:54;;;;;;;5.5;1.3;;;;;;;20.5;47.29395;98527.2;;;;
2021/05/27 12:19:54;;;;;;;4.7;1.6;;;;;;;20.45;47.3125;98532.99;;;;
2021/05/27 12:29:54;;;;;;;2.3;1;;;;;;;20.08;47.64551;98536.44;;;;
2021/05/27 12:39:54;;;;;;;2.7;0.9;;;;;;;19.66;47.7627;98532.31;;;;
2021/05/27 12:49:54;;;;;;;3.2;1.2;;;;;;;19.57;48.40332;98543.53;;;;
2021/05/27 12:59:54;;;;;;;4.7;1.4;;;;;;;18.92;51.89258;98549.04;;;;
2021/05/27 13:09:54;;;;;;;4.8;1.4;;;;;;;19.1;50.71777;98524.77;;;;
2021/05/27 13:19:54;;;;;;;2.6;1.1;;;;;;;19.09;50.28809;98517.72;;;;
2021/05/27 13:29:54;;;;;;;3.4;1;;;;;;;18.35;52.88965;98524.53;;;;
2021/05/27 13:39:53;;;;;;;2.7;1.4;;;;;;;18.06;54.27637;98523.95;;;;
2021/05/27 13:49:53;;;;;;;2.9;1;;;;;;;18.34;55.26953;98514.76;;;;
2021/05/27 13:59:53;;;;;;;3.9;1.8;;;;;;;18.6;54.85254;98523.11;;;;
2021/05/27 14:09:54;;;;;;;6.8;2;;;;;;;19;53.71973;98525.38;;;;
2021/05/27 14:19:53;;;;;;;4.4;2.3;;;;;;;18.69;50.99609;98518.2;;;;
2021/05/27 14:29:53;;;;;;;6.7;2.5;;;;;;;18.99;49.65137;98508.2;;;;
2021/05/27 14:39:52;;;;;;;4.5;2.1;;;;;;;18.79;50.9502;98500.42;;;;
2021/05/27 14:49:52;;;;;;;3.2;1.5;;;;;;;19.53;49.29395;98501.67;;;;
2021/05/27 14:59:52;;;;;;;4.2;1.6;;;;;;;19.74;47.73633;98518.39;;;;
2021/05/27 15:09:52;;;;;;;3.2;1.5;;;;;;;20.42;47.03027;98512.63;;;;
2021/05/27 15:19:51;;;;;;;7.5;2.6;;;;;;;20.2;48.62402;98516.23;;;;
2021/05/27 15:29:52;;;;;;;5.7;1.5;;;;;;;19.29;48.46582;98502.05;;;;
2021/05/27 15:39:51;;;;;;;4.1;1.9;;;;;;;18.96;50.27246;98497.2;;;;
2021/05/27 15:49:51;;;;;;;8.2;1.9;;;;;;;21.8;44.79102;98499.34;;;;
2021/05/27 15:59:51;;;;;;;4.3;2.3;;;;;;;23.51;41.58301;98502.17;;;;
2021/05/27 16:09:51;;;;;;;4.4;2;;;;;;;21.4;44.28516;98503.02;;;;
2021/05/27 16:19:51;;;;;;;3.3;2;;;;;;;20.87;46.57617;98489.63;;;;
2021/05/27 16:29:51;;;;;;;3.6;1.5;;;;;;;19.53;46.54102;98502.47;;;;
2021/05/27 16:39:51;;;;;;;5.5;2.7;;;;;;;20.33;45.12207;98503.94;;;;
2021/05/27 16:49:51;;;;;;;4.2;1.7;;;;;;;20.38;45.80273;98503.59;;;;
2021/05/27 16:59:51;;;;;;;3.6;1.9;;;;;;;20.15;46.0459;98502.11;;;;
2021/05/27 17:09:51;;;;;;;6.1;2.4;;;;;;;19.16;47.03516;98500.67;;;;
2021/05/27 17:19:51;;;;;;;4.1;1.7;;;;;;;17.75;47.81152;98504.17;;;;
2021/05/27 17:29:50;;;;;;;2.9;1.9;;;;;;;17.15;50.7959;98503.53;;;;
2021/05/27 17:39:50;;;;;;;5.5;2.1;;;;;;;16.6;53.79785;98501.75;;;;
2021/05/27 17:49:50;;;;;;;4.2;2.2;;;;;;;16.29;56.5332;98507.89;;;;
2021/05/27 17:59:49;;;;;;;6.4;2.6;;;;;;;15.94;57.59082;98515.03;;;;
2021/05/27 18:09:48;;;;;;;12.5;3.7;;;;;;;15.58;59.30176;98519.39;;;;
2021/05/27 18:19:48;;;;;;;4.5;2.9;;;;;;;15.26;60.62207;98525.74;;;;
2021/05/27 18:29:47;;;;;;;4.9;2.5;;;;;;;15.12;62.12598;98527.99;;;;
2021/05/27 18:39:46;;;;;;;8.1;4.1;;;;;;;14.96;63.16797;98535.22;;;;
2021/05/27 18:49:45;;;;;;;7.6;4.3;;;;;;;14.81;63.92383;98560.28;;;;
2021/05/27 18:59:44;;;;;;;5.8;3.4;;;;;;;14.68;66.11133;98570.31;;;;
2021/05/27 19:09:44;;;;;;;9.6;4.7;;;;;;;14.59;67.35449;98575.02;;;;
2021/05/27 19:19:43;;;;;;;8.6;4;;;;;;;14.59;66.55566;98589.38;;;;
2021/05/27 19:29:42;;;;;;;7.9;4.3;;;;;;;14.53;66.99121;98589.91;;;;
2021/05/27 19:39:41;;;;;;;10.1;4.3;;;;;;;14.43;67.26172;98585.7;;;;
2021/05/27 19:49:40;;;;;;;7.6;4.4;;;;;;;14.27;70.33984;98590.09;;;;
2021/05/27 19:59:39;;;;;;;8.9;5.7;;;;;;;14.02;74.32031;98577.55;;;;
2021/05/27 20:09:38;;;;;;;8.2;5.2;;;;;;;13.89;75.43457;98595.63;;;;
2021/05/27 20:19:38;;;;;;;7.1;5.4;;;;;;;13.83;74.36816;98596.16;;;;
2021/05/27 20:29:36;;;;;;;10.7;4.7;;;;;;;13.78;74.38184;98596.36;;;;
2021/05/27 20:39:35;;;;;;;10.2;5.4;;;;;;;13.65;78.41797;98603.58;;;;
2021/05/27 20:49:34;;;;;;;10.5;6.6;;;;;;;13.57;77.71094;98602.5;;;;
2021/05/27 20:59:33;;;;;;;11.8;6.6;;;;;;;13.57;78.58496;98605.2;;;;
2021/05/27 21:09:32;;;;;;;9.8;6.1;;;;;;;13.44;77.60742;98606.23;;;;
2021/05/27 21:19:31;;;;;;;9;6.1;;;;;;;13.43;78.19629;98625.52;;;;
2021/05/27 21:29:30;;;;;;;9.1;5.8;;;;;;;13.37;79.86523;98621.38;;;;
2021/05/27 21:39:30;;;;;;;12.3;5.5;;;;;;;13.24;82.2666;98630.52;;;;
2021/05/27 21:49:28;;;;;;;9.3;7.2;;;;;;;13.01;84.21973;98638.84;;;;
2021/05/27 21:59:27;;;;;;;9.4;7;;;;;;;13;83.02637;98636.44;;;;
2021/05/27 22:09:26;;;;;;;10.1;6.4;;;;;;;12.86;83.76074;98633.92;;;;
2021/05/27 22:19:27;;;;;;;10.5;6.6;;;;;;;12.74;84.99316;98633.77;;;;
2021/05/27 22:29:24;;;;;;;11.7;7.2;;;;;;;12.68;86.42871;98640.46;;;;
2021/05/27 22:39:23;;;;;;;16.7;8;;;;;;;12.63;87.21973;98647.95;;;;
2021/05/27 22:49:22;;;;;;;9.5;6.9;;;;;;;12.61;86.56348;98638.24;;;;
2021/05/27 22:59:21;;;;;;;9.8;7.7;;;;;;;12.52;89.0293;98644.77;;;;
2021/05/27 23:09:20;;;;;;;12.1;8.5;;;;;;;12.37;90.46484;98647.94;;;;
2021/05/27 23:19:19;;;;;;;9.3;6.8;;;;;;;12.27;90.85156;98654.45;;;;
2021/05/27 23:29:19;;;;;;;10.7;7.5;;;;;;;12.26;91.98828;98657.46;;;;
2021/05/27 23:39:19;;;;;;;13.5;8.8;;;;;;;12.19;92.44727;98663.34;;;;
2021/05/27 23:49:15;;;;;;;15.8;9;;;;;;;12.1;93.58887;98662.53;;;;
2021/05/27 23:59:14;;;;;;;12.6;9.2;;;;;;;12.04;94.79199;98661.1;;;;
